Time;durP1;ratioP1;P1;durP2;ratioP2;P2;SDS_P1;SDS_P2;PMS_P1;PMS_P2;Temp;Humidity;BMP_temperature;BMP_pressure;BME280_temperature;BME280_humidity;BME280_pressure;Samples;Min_cycle;Max_cycle;Signal;HPM_P1;HPM_P2
2022/09/18 00:01:25;;;;;;;9.40;2.40;;;;;;;12.40;76.58;99925.78;5014603;28;20069;-86
2022/09/18 00:03:56;;;;;;;11.15;2.30;;;;;;;12.43;76.25;99925.47;4998979;28;20053;-87
2022/09/18 00:06:25;;;;;;;11.30;2.20;;;;;;;12.45;76.36;99928.00;5008613;28;20555;-86
2022/09/18 00:08:53;;;;;;;13.57;2.15;;;;;;;12.46;76.52;99925.19;5004590;28;20061;-87
2022/09/18 00:11:22;;;;;;;8.68;2.50;;;;;;;12.48;76.31;99923.22;5023634;28;20055;-86
2022/09/18 00:13:53;;;;;;;11.43;2.38;;;;;;;12.41;76.93;99922.09;5020734;28;20049;-86
2022/09/18 00:16:21;;;;;;;13.48;2.03;;;;;;;12.45;76.71;99918.19;4978054;28;20148;-86
2022/09/18 00:18:48;;;;;;;9.27;2.42;;;;;;;12.49;76.20;99918.72;4981624;28;20445;-87
2022/09/18 00:21:17;;;;;;;10.98;2.50;;;;;;;12.47;76.21;99918.88;4990085;28;20045;-85
2022/09/18 00:23:44;;;;;;;14.10;2.42;;;;;;;12.50;76.17;99917.75;4993687;28;20148;-87
2022/09/18 00:26:15;;;;;;;11.15;2.38;;;;;;;12.45;76.30;99925.34;4982134;28;20054;-86
2022/09/18 00:28:42;;;;;;;11.30;2.33;;;;;;;12.46;76.51;99922.50;4986267;28;20050;-86
2022/09/18 00:31:13;;;;;;;6.65;2.17;;;;;;;12.42;76.31;99917.66;4971836;28;20112;-86
2022/09/18 00:33:40;;;;;;;11.45;2.92;;;;;;;12.49;76.29;99919.59;4982815;28;20052;-85
2022/09/18 00:36:10;;;;;;;9.88;2.63;;;;;;;12.51;75.97;99919.41;4982870;28;20046;-85
2022/09/18 00:38:37;;;;;;;10.13;2.97;;;;;;;12.49;76.16;99924.91;4992011;28;20056;-86
2022/09/18 00:41:07;;;;;;;9.07;2.42;;;;;;;12.50;76.04;99918.59;4999384;28;20447;-86
2022/09/18 00:43:35;;;;;;;7.80;2.30;;;;;;;12.54;76.00;99927.09;4974787;28;20050;-86
2022/09/18 00:46:24;;;;;;;7.97;2.90;;;;;;;12.48;76.55;99927.72;4980826;28;20050;-86
2022/09/18 00:49:12;;;;;;;5.72;2.10;;;;;;;12.44;76.63;99924.50;4996067;28;20432;-86
2022/09/18 00:51:40;;;;;;;8.13;2.88;;;;;;;12.49;76.65;99932.03;4976441;28;20075;-86
2022/09/18 00:54:27;;;;;;;15.63;2.83;;;;;;;12.41;76.24;99930.09;5009219;28;20045;-86
2022/09/18 00:56:57;;;;;;;8.18;2.75;;;;;;;12.50;76.17;99925.75;4961596;28;20168;-86
2022/09/18 00:59:29;;;;;;;10.10;2.67;;;;;;;12.48;76.25;99930.38;5034619;28;20052;-86
2022/09/18 01:01:56;;;;;;;18.20;2.80;;;;;;;12.55;75.75;99932.31;4988296;28;21195;-86
2022/09/18 01:04:23;;;;;;;9.40;2.50;;;;;;;12.51;76.22;99927.41;5026451;28;20075;-86
2022/09/18 01:06:54;;;;;;;9.98;2.65;;;;;;;12.49;76.33;99926.72;5008040;28;20061;-87
2022/09/18 01:09:34;;;;;;;11.13;3.42;;;;;;;12.44;76.79;99935.16;4993157;28;20100;-87
2022/09/18 01:12:33;;;;;;;10.30;2.67;;;;;;;12.43;76.57;99933.47;4988007;28;20045;-86
2022/09/18 01:15:14;;;;;;;9.20;2.33;;;;;;;12.46;76.37;99932.34;4965097;28;20127;-86
2022/09/18 01:17:44;;;;;;;9.13;2.60;;;;;;;12.54;76.09;99932.44;5023023;28;20548;-86
2022/09/18 01:20:30;;;;;;;11.65;3.03;;;;;;;12.44;76.29;99931.63;4991852;28;20045;-85
2022/09/18 01:23:15;;;;;;;12.18;2.85;;;;;;;12.46;76.54;99932.34;5008776;28;20493;-86
2022/09/18 01:26:23;;;;;;;11.57;3.25;;;;;;;12.34;76.87;99937.84;4997883;28;20066;-85
2022/09/18 01:28:53;;;;;;;13.77;3.00;;;;;;;12.51;76.00;99936.22;4963487;28;20038;-85
2022/09/18 01:31:35;;;;;;;9.88;3.05;;;;;;;12.50;76.04;99934.56;4995355;28;20068;-86
2022/09/18 01:34:23;;;;;;;13.65;2.80;;;;;;;12.43;76.15;99945.94;4979568;28;20047;-84
2022/09/18 01:36:57;;;;;;;11.52;2.58;;;;;;;12.49;76.22;99940.03;4975951;28;20381;-86
2022/09/18 01:39:42;;;;;;;12.55;3.00;;;;;;;12.34;76.84;99940.50;5007908;28;20107;-85
2022/09/18 01:42:11;;;;;;;11.80;3.63;;;;;;;12.51;76.04;99938.91;4992463;28;20041;-85
2022/09/18 01:44:40;;;;;;;6.65;2.65;;;;;;;12.48;76.74;99944.50;5021414;28;20065;-84
2022/09/18 01:47:10;;;;;;;13.93;2.97;;;;;;;12.48;77.24;99954.34;5007251;28;20404;-84
2022/09/18 01:49:42;;;;;;;13.13;2.53;;;;;;;12.48;76.73;99938.34;5002959;28;20083;-85
2022/09/18 01:52:14;;;;;;;9.65;2.70;;;;;;;12.48;76.62;99939.19;4991707;28;20045;-84
2022/09/18 01:54:44;;;;;;;9.88;2.92;;;;;;;12.49;76.72;99932.91;5007066;28;20452;-86
2022/09/18 01:57:21;;;;;;;11.52;3.20;;;;;;;12.38;77.95;99935.72;5018828;28;20040;-85
2022/09/18 02:00:09;;;;;;;14.10;2.85;;;;;;;12.27;77.36;99936.75;4992918;28;20044;-85
2022/09/18 02:03:05;;;;;;;14.07;2.17;;;;;;;12.37;77.70;99947.38;5008756;28;20041;-86
2022/09/18 02:05:36;;;;;;;9.07;2.30;;;;;;;12.43;77.14;99938.78;4955072;28;20528;-86
2022/09/18 02:08:17;;;;;;;13.65;2.88;;;;;;;12.35;78.05;99934.19;5019435;28;20042;-85
2022/09/18 02:10:51;;;;;;;16.00;3.37;;;;;;;12.44;77.13;99932.50;4959990;28;20129;-86
2022/09/18 02:13:22;;;;;;;8.68;3.38;;;;;;;12.41;77.38;99940.75;4972054;28;20049;-85
2022/09/18 02:15:56;;;;;;;12.70;2.88;;;;;;;12.31;77.61;99945.25;5000033;28;20044;-85
2022/09/18 02:18:30;;;;;;;16.77;3.88;;;;;;;12.36;77.83;99943.88;5032767;28;20107;-85
2022/09/18 02:20:57;;;;;;;6.30;2.50;;;;;;;12.44;76.20;99919.19;5015761;28;20131;-86
2022/09/18 02:23:24;;;;;;;10.00;3.42;;;;;;;12.41;76.80;99927.44;4993547;28;20045;-85
2022/09/18 02:25:59;;;;;;;12.68;3.63;;;;;;;12.37;77.19;99923.41;5003687;28;20119;-86
2022/09/18 02:28:28;;;;;;;17.17;3.90;;;;;;;12.43;76.96;99929.97;4989798;28;21607;-86
2022/09/18 02:30:57;;;;;;;9.73;3.13;;;;;;;12.39;77.25;99932.09;5009277;28;20049;-86
2022/09/18 02:33:31;;;;;;;6.63;2.60;;;;;;;12.29;78.61;99936.59;5030927;28;20038;-86
2022/09/18 02:36:37;;;;;;;10.75;3.40;;;;;;;12.40;78.22;99932.94;4983461;28;20069;-85
2022/09/18 02:39:38;;;;;;;19.23;4.35;;;;;;;12.29;78.12;99929.44;4896634;28;20553;-85
2022/09/18 02:42:20;;;;;;;8.15;2.70;;;;;;;12.40;77.81;99917.78;4963681;28;20049;-85
2022/09/18 02:45:22;;;;;;;5.85;2.95;;;;;;;12.37;77.65;99928.72;4994733;28;20501;-85
2022/09/18 02:48:01;;;;;;;19.35;4.10;;;;;;;12.43;77.16;99920.16;4929593;28;20054;-84
2022/09/18 02:50:56;;;;;;;9.80;3.47;;;;;;;12.27;77.84;99926.09;4962082;28;20076;-85
2022/09/18 02:53:29;;;;;;;8.75;3.17;;;;;;;12.37;76.81;99926.06;4990881;28;20099;-85
2022/09/18 02:56:02;;;;;;;;;;;;;;;12.07;78.12;99924.47;4991695;28;20541;-86
2022/09/18 02:58:37;;;;;;;11.68;3.08;;;;;;;12.27;78.46;99927.91;5019597;28;19927;-85
2022/09/18 03:01:31;;;;;;;12.82;3.05;;;;;;;12.12;78.09;99912.38;5023154;28;20071;-86
2022/09/18 03:04:04;;;;;;;13.48;3.22;;;;;;;12.27;77.44;99930.59;4940658;28;20378;-85
2022/09/18 03:06:44;;;;;;;7.03;3.08;;;;;;;12.33;77.44;99911.34;4972015;28;20111;-86
2022/09/18 03:09:11;;;;;;;15.20;3.80;;;;;;;12.32;77.92;99902.53;5016839;28;20076;-85
2022/09/18 03:11:38;;;;;;;16.00;4.00;;;;;;;12.40;77.31;99908.97;4988921;28;20045;-85
2022/09/18 03:14:04;;;;;;;11.70;3.20;;;;;;;12.38;77.80;99904.59;4999770;28;20091;-87
2022/09/18 03:16:31;;;;;;;13.20;4.22;;;;;;;12.35;78.05;99914.72;5013827;28;20055;-86
2022/09/18 03:18:58;;;;;;;12.75;3.97;;;;;;;12.40;77.34;99900.97;5012511;28;20041;-86
2022/09/18 03:21:26;;;;;;;7.45;4.15;;;;;;;12.36;78.53;99900.41;5025796;28;20045;-86
2022/09/18 03:23:54;;;;;;;13.77;3.85;;;;;;;12.38;77.85;99906.44;4990644;28;20532;-87
2022/09/18 03:26:35;;;;;;;14.90;3.50;;;;;;;12.33;77.63;99900.69;5003652;28;20038;-88
2022/09/18 03:29:10;;;;;;;11.02;3.55;;;;;;;12.31;77.94;99903.53;5012770;28;20055;-87
2022/09/18 03:31:39;;;;;;;8.52;3.20;;;;;;;12.29;78.03;99913.47;5012921;28;20046;-88
2022/09/18 03:34:06;;;;;;;9.38;3.70;;;;;;;12.28;78.10;99911.78;5000444;28;20405;-89
2022/09/18 03:36:33;;;;;;;15.50;4.07;;;;;;;12.30;78.82;99911.66;4983398;28;20040;-87
2022/09/18 03:39:01;;;;;;;9.15;3.67;;;;;;;12.26;79.81;99916.44;5030973;28;20037;-88
2022/09/18 03:41:29;;;;;;;13.48;3.30;;;;;;;12.31;78.83;99914.19;5027886;28;20047;-88
2022/09/18 03:43:56;;;;;;;11.00;3.40;;;;;;;12.27;79.13;99906.63;5033105;28;20041;-88
2022/09/18 03:46:23;;;;;;;10.63;3.58;;;;;;;12.32;78.71;99915.00;5016893;28;20136;-86
2022/09/18 03:48:53;;;;;;;12.98;3.72;;;;;;;12.31;78.90;99911.50;4975088;28;20140;-86
2022/09/18 03:51:25;;;;;;;8.52;3.65;;;;;;;12.24;79.99;99905.09;5011333;28;20045;-87
2022/09/18 03:53:52;;;;;;;13.57;3.88;;;;;;;12.30;79.27;99903.66;5017930;28;20049;-86
2022/09/18 03:56:39;;;;;;;12.43;3.67;;;;;;;12.31;78.80;99908.84;5013040;28;20045;-86
2022/09/18 03:59:13;;;;;;;15.27;4.22;;;;;;;12.27;79.39;99909.28;4993099;28;20157;-86
2022/09/18 04:01:57;;;;;;;15.43;3.63;;;;;;;12.21;79.75;99913.34;5013284;28;20596;-86
2022/09/18 04:04:24;;;;;;;9.95;3.42;;;;;;;12.21;79.69;99917.81;5033152;28;20140;-86
2022/09/18 04:06:57;;;;;;;;;;;;;;;11.99;80.73;99911.03;5026902;28;20432;-86
2022/09/18 04:09:42;;;;;;;8.52;4.15;;;;;;;12.17;79.87;99909.31;4996054;28;20401;-86
2022/09/18 04:12:10;;;;;;;7.20;4.45;;;;;;;12.26;79.15;99895.13;4998609;28;20493;-86
2022/09/18 04:14:37;;;;;;;6.88;3.78;;;;;;;12.29;78.98;99897.50;5007922;28;20103;-84
2022/09/18 04:17:04;;;;;;;10.07;4.05;;;;;;;12.29;78.75;99894.84;5007712;28;20046;-86
2022/09/18 04:19:31;;;;;;;8.38;3.90;;;;;;;12.29;79.03;99900.16;5027613;28;20572;-86
2022/09/18 04:22:00;;;;;;;9.93;4.63;;;;;;;12.31;78.93;99902.66;4995572;28;20038;-86
2022/09/18 04:24:26;;;;;;;8.75;3.92;;;;;;;12.30;79.15;99896.50;5005379;28;20045;-87
2022/09/18 04:26:53;;;;;;;13.40;3.40;;;;;;;12.29;78.82;99900.16;5014216;28;20049;-87
2022/09/18 04:29:23;;;;;;;8.68;3.83;;;;;;;12.31;78.60;99898.19;4991018;28;20053;-87
2022/09/18 04:31:50;;;;;;;9.07;4.13;;;;;;;12.30;78.75;99901.84;5011405;28;20053;-87
2022/09/18 04:34:19;;;;;;;16.23;3.97;;;;;;;12.32;78.59;99904.34;5018039;28;20064;-89
2022/09/18 04:36:46;;;;;;;8.63;3.83;;;;;;;12.28;78.93;99903.78;5004005;28;20045;-87
2022/09/18 04:39:13;;;;;;;15.88;3.75;;;;;;;12.25;79.19;99904.09;5005017;28;20489;-87
2022/09/18 04:41:41;;;;;;;6.22;3.30;;;;;;;12.22;79.36;99909.72;5015388;28;20049;-88
2022/09/18 04:44:08;;;;;;;9.10;3.35;;;;;;;12.23;79.71;99906.06;5035673;28;20045;-88
2022/09/18 04:46:40;;;;;;;10.18;4.18;;;;;;;12.18;80.03;99904.81;5026361;28;20088;-87
2022/09/18 04:49:07;;;;;;;9.90;3.53;;;;;;;12.23;79.64;99905.22;5020016;28;20045;-87
2022/09/18 04:51:34;;;;;;;16.17;3.70;;;;;;;12.20;79.86;99897.53;5010690;28;20049;-87
2022/09/18 04:54:01;;;;;;;7.63;3.95;;;;;;;12.22;79.90;99900.88;5018314;28;20042;-87
2022/09/18 04:56:28;;;;;;;10.73;3.97;;;;;;;12.21;79.73;99910.66;5019797;28;20048;-87
2022/09/18 04:58:56;;;;;;;13.10;3.70;;;;;;;12.19;80.09;99915.31;4997960;28;20045;-87
2022/09/18 05:01:22;;;;;;;10.95;3.53;;;;;;;12.20;80.00;99917.00;5026826;28;20374;-87
2022/09/18 05:03:50;;;;;;;9.07;3.58;;;;;;;12.20;79.72;99910.84;4999369;28;20061;-87
2022/09/18 05:06:27;;;;;;;8.15;3.38;;;;;;;12.21;79.82;99913.34;5007164;28;21030;-86
2022/09/18 05:08:57;;;;;;;8.35;3.42;;;;;;;12.22;79.03;99919.53;5010484;28;20496;-87
2022/09/18 05:11:25;;;;;;;13.95;3.60;;;;;;;12.22;79.21;99915.03;5002035;28;20132;-87
2022/09/18 05:13:55;;;;;;;8.70;3.63;;;;;;;12.24;79.19;99914.91;5018653;28;20053;-87
2022/09/18 05:16:24;;;;;;;12.32;3.67;;;;;;;12.24;79.24;99918.41;5011451;28;20053;-87
2022/09/18 05:19:19;;;;;;;9.85;3.30;;;;;;;12.23;79.20;99924.69;4988632;28;20056;-86
2022/09/18 05:21:50;;;;;;;20.30;3.65;;;;;;;12.23;79.24;99922.03;5003901;28;20537;-87
2022/09/18 05:24:18;;;;;;;11.55;3.75;;;;;;;12.25;79.43;99925.38;4986370;28;20045;-86
2022/09/18 05:26:44;;;;;;;7.60;4.03;;;;;;;12.26;78.89;99915.56;4999748;28;20048;-86
2022/09/18 05:29:11;;;;;;;10.65;3.92;;;;;;;12.28;79.06;99913.59;5009024;28;20113;-86
2022/09/18 05:31:45;;;;;;;6.72;3.25;;;;;;;12.23;79.04;99916.69;5001202;28;20454;-85
2022/09/18 05:34:14;;;;;;;13.13;3.42;;;;;;;12.27;78.77;99912.78;4977230;28;20041;-85
2022/09/18 05:36:40;;;;;;;7.60;3.40;;;;;;;12.26;78.71;99911.13;4980710;28;20057;-86
2022/09/18 05:39:07;;;;;;;6.63;3.47;;;;;;;12.25;78.73;99917.41;5010469;28;20386;-85
2022/09/18 05:41:36;;;;;;;11.25;3.50;;;;;;;12.26;78.75;99915.56;4973541;28;20466;-85
2022/09/18 05:44:03;;;;;;;8.32;3.30;;;;;;;12.24;79.05;99923.72;5029124;28;20056;-86
2022/09/18 05:46:30;;;;;;;11.90;3.72;;;;;;;12.25;79.39;99932.53;5034637;28;20069;-85
2022/09/18 05:49:00;;;;;;;13.70;3.95;;;;;;;12.23;79.37;99938.00;5013467;28;20137;-86
2022/09/18 05:51:27;;;;;;;9.35;3.88;;;;;;;12.21;79.72;99939.13;4994385;28;20079;-86
2022/09/18 05:53:59;;;;;;;6.40;3.58;;;;;;;12.20;79.20;99943.63;5006319;28;20374;-85
2022/09/18 05:56:46;;;;;;;7.38;3.90;;;;;;;12.29;79.06;99952.59;4994774;28;20049;-86
2022/09/18 05:59:13;;;;;;;10.13;4.22;;;;;;;12.26;78.94;99948.38;5007353;28;20457;-86
2022/09/18 06:01:44;;;;;;;10.38;4.15;;;;;;;12.27;78.97;99950.06;5009736;28;20115;-85
2022/09/18 06:04:36;;;;;;;12.98;5.20;;;;;;;12.30;78.66;99955.09;4959759;28;20052;-85
2022/09/18 06:07:07;;;;;;;9.30;4.88;;;;;;;12.27;79.17;99944.72;5007391;28;20389;-85
2022/09/18 06:09:34;;;;;;;10.48;4.57;;;;;;;12.29;78.74;99942.75;5011302;28;20045;-84
2022/09/18 06:12:00;;;;;;;14.00;4.22;;;;;;;12.31;78.59;99932.81;4990204;28;20385;-85
2022/09/18 06:14:32;;;;;;;10.60;5.20;;;;;;;12.31;78.69;99937.28;5002242;28;20119;-84
2022/09/18 06:16:59;;;;;;;12.77;5.50;;;;;;;12.32;78.63;99934.47;4977591;28;20079;-86
2022/09/18 06:19:25;;;;;;;11.25;4.78;;;;;;;12.33;78.52;99949.47;5016339;28;20046;-85
2022/09/18 06:21:56;;;;;;;12.43;5.22;;;;;;;12.30;78.53;99944.44;4998800;28;20065;-85
2022/09/18 06:24:24;;;;;;;10.57;5.03;;;;;;;12.32;78.31;99946.97;5015447;28;20052;-84
2022/09/18 06:27:00;;;;;;;16.55;5.85;;;;;;;12.35;78.29;99952.00;4989301;28;20124;-83
2022/09/18 06:29:27;;;;;;;11.30;5.70;;;;;;;12.33;78.86;99948.63;5022474;28;20050;-83
2022/09/18 06:32:01;;;;;;;19.27;5.95;;;;;;;12.34;78.22;99947.66;4955711;28;20382;-82
2022/09/18 06:34:29;;;;;;;14.15;5.72;;;;;;;12.34;78.58;99950.31;5026779;28;20056;-81
2022/09/18 06:37:02;;;;;;;13.45;6.25;;;;;;;12.31;79.01;99951.47;5014921;28;20045;-83
2022/09/18 06:39:41;;;;;;;15.00;6.28;;;;;;;12.34;78.81;99956.50;5019839;28;20053;-82
2022/09/18 06:42:15;;;;;;;13.65;6.40;;;;;;;12.31;78.94;99946.13;5031195;28;20048;-82
2022/09/18 06:44:59;;;;;;;14.88;6.47;;;;;;;12.35;78.50;99944.00;5009607;28;20056;-84
2022/09/18 06:47:27;;;;;;;11.88;6.13;;;;;;;12.35;78.37;99944.84;5007253;28;20124;-84
2022/09/18 06:49:55;;;;;;;16.02;6.63;;;;;;;12.37;78.99;99944.72;5020011;28;20045;-83
2022/09/18 06:52:22;;;;;;;14.13;6.47;;;;;;;12.37;78.71;99944.72;5018149;28;20481;-84
2022/09/18 06:54:53;;;;;;;12.88;6.53;;;;;;;12.34;78.69;99953.81;5003310;28;20564;-83
2022/09/18 06:57:30;;;;;;;14.43;6.80;;;;;;;12.30;79.00;99952.41;5019979;28;20128;-82
2022/09/18 06:59:57;;;;;;;18.58;6.55;;;;;;;12.33;78.61;99956.63;4989492;28;20038;-83
2022/09/18 07:02:24;;;;;;;16.45;6.05;;;;;;;12.34;78.90;99953.81;5013889;28;20045;-83
2022/09/18 07:05:01;;;;;;;16.98;6.95;;;;;;;12.31;79.12;99954.13;5017105;28;20048;-83
2022/09/18 07:07:32;;;;;;;14.32;6.15;;;;;;;12.32;78.92;99965.59;5032250;28;20052;-83
2022/09/18 07:09:59;;;;;;;11.00;6.45;;;;;;;12.37;79.03;99963.34;5021375;28;20400;-83
2022/09/18 07:12:36;;;;;;;19.98;6.18;;;;;;;12.36;78.64;99957.19;4981809;28;20058;-83
2022/09/18 07:15:05;;;;;;;15.27;6.50;;;;;;;12.40;78.83;99962.22;5014915;28;20061;-83
2022/09/18 07:17:32;;;;;;;13.05;6.40;;;;;;;12.38;78.69;99963.19;5021791;28;20095;-84
2022/09/18 07:20:00;;;;;;;23.85;7.40;;;;;;;12.42;78.48;99962.91;5016195;28;20053;-84
2022/09/18 07:22:38;;;;;;;18.15;6.13;;;;;;;12.43;78.73;99954.75;5010581;28;20499;-84
2022/09/18 07:25:12;;;;;;;11.02;6.32;;;;;;;12.46;78.66;99958.97;4999718;28;20068;-86
2022/09/18 07:27:41;;;;;;;14.65;6.38;;;;;;;12.47;78.36;99961.50;5018108;28;20546;-84
2022/09/18 07:30:09;;;;;;;13.13;6.18;;;;;;;12.48;78.60;99959.66;5033734;28;20400;-84
2022/09/18 07:32:36;;;;;;;14.93;6.18;;;;;;;12.52;78.27;99963.72;5009440;28;20057;-85
2022/09/18 07:35:09;;;;;;;;;;;;;;;12.34;79.10;99960.97;5006970;28;20045;-84
2022/09/18 07:37:37;;;;;;;11.15;5.88;;;;;;;12.49;78.56;99964.00;5000808;28;19935;-85
2022/09/18 07:40:30;;;;;;;11.35;5.78;;;;;;;12.51;78.29;99968.19;4978139;28;20045;-84
2022/09/18 07:43:07;;;;;;;18.67;5.93;;;;;;;12.55;77.91;99966.09;5020777;28;20049;-84
2022/09/18 07:45:37;;;;;;;15.63;5.40;;;;;;;12.57;77.96;99966.81;5006331;28;20044;-84
2022/09/18 07:48:05;;;;;;;21.70;6.35;;;;;;;12.54;78.12;99975.91;5015737;28;20041;-84
2022/09/18 07:50:37;;;;;;;;;;;;;;;12.34;78.79;99983.13;5027013;28;20084;-83
2022/09/18 07:53:07;;;;;;;17.77;6.05;;;;;;;12.49;78.70;99975.50;5033625;28;19927;-83
2022/09/18 07:55:37;;;;;;;11.05;5.00;;;;;;;12.50;78.57;99979.00;5021650;28;20053;-83
2022/09/18 07:58:06;;;;;;;14.55;5.00;;;;;;;12.52;78.66;99979.72;5028990;28;20120;-82
2022/09/18 08:00:51;;;;;;;13.57;5.38;;;;;;;12.53;78.42;99984.03;4942434;28;20065;-82
2022/09/18 08:03:19;;;;;;;8.43;4.55;;;;;;;12.55;78.13;99984.75;4996333;28;20133;-84
2022/09/18 08:05:58;;;;;;;18.00;4.93;;;;;;;12.55;77.62;99984.75;4977847;28;20057;-83
2022/09/18 08:08:25;;;;;;;10.57;5.28;;;;;;;12.54;78.04;99977.72;5020239;28;20044;-84
2022/09/18 08:11:27;;;;;;;10.73;4.60;;;;;;;12.53;78.09;99976.88;4942345;28;20047;-84
2022/09/18 08:14:19;;;;;;;16.98;5.35;;;;;;;12.50;78.56;99977.19;4976704;28;20081;-83
2022/09/18 08:17:07;;;;;;;30.80;14.77;;;;;;;12.50;78.45;99982.50;4990648;28;20052;-83
2022/09/18 08:20:07;;;;;;;24.83;10.43;;;;;;;12.47;78.98;99973.97;4990386;28;20085;-83
2022/09/18 08:22:49;;;;;;;14.90;8.20;;;;;;;12.48;78.60;99976.47;4986825;28;20073;-82
2022/09/18 08:25:20;;;;;;;12.43;5.47;;;;;;;12.48;78.93;99978.31;5012805;28;20068;-83
2022/09/18 08:27:48;;;;;;;11.68;5.25;;;;;;;12.49;79.17;99986.16;5024519;28;20057;-83
2022/09/18 08:30:23;;;;;;;7.55;4.43;;;;;;;12.48;78.88;99983.63;4991625;28;20049;-83
2022/09/18 08:33:01;;;;;;;12.15;4.63;;;;;;;12.43;78.56;99984.06;5003519;28;20099;-83
2022/09/18 08:35:29;;;;;;;14.98;4.80;;;;;;;12.48;78.74;99976.47;4995172;28;20150;-83
2022/09/18 08:38:00;;;;;;;10.68;4.53;;;;;;;12.47;79.48;99981.97;5034931;28;20111;-83
2022/09/18 08:40:41;;;;;;;16.88;5.07;;;;;;;12.44;80.22;99982.22;5008453;28;20049;-82
2022/09/18 08:43:35;;;;;;;15.02;5.78;;;;;;;12.49;79.88;99982.63;5013256;28;20784;-82
2022/09/18 08:46:06;;;;;;;10.68;4.75;;;;;;;12.48;79.60;99979.16;5005000;28;20457;-82
2022/09/18 08:48:38;;;;;;;10.32;4.97;;;;;;;12.51;80.07;99980.69;5021252;28;20041;-80
2022/09/18 08:51:22;;;;;;;18.13;6.55;;;;;;;12.47;79.92;99976.66;5027081;28;20077;-80
2022/09/18 08:53:54;;;;;;;10.75;6.20;;;;;;;12.52;79.37;99982.38;4975566;28;20041;-81
2022/09/18 08:56:38;;;;;;;10.05;4.68;;;;;;;12.57;79.20;99972.97;5013275;28;20045;-80
2022/09/18 08:59:32;;;;;;;14.30;4.22;;;;;;;12.55;79.06;99976.75;4994863;28;20041;-82
2022/09/18 09:02:11;;;;;;;;;;;;;;;12.38;79.86;99981.00;5005517;28;20073;-82
2022/09/18 09:04:38;;;;;;;17.58;4.82;;;;;;;12.52;79.60;99975.22;5018352;28;19925;-83
2022/09/18 09:11:47;;;;;;;7.15;3.92;;;;;;;12.52;79.41;99985.03;5024089;28;20036;-83
2022/09/18 09:14:32;;;;;;;8.55;4.60;;;;;;;12.59;79.78;99983.44;5020386;28;20076;-82
2022/09/18 09:17:51;;;;;;;16.58;5.07;;;;;;;12.48;80.22;99984.47;4956772;28;20112;-83
2022/09/18 09:20:24;;;;;;;9.25;4.07;;;;;;;12.60;79.39;99979.81;4926482;28;20048;-84
2022/09/18 09:27:23;;;;;;;54.80;25.38;;;;;;;12.63;79.35;99984.84;4999168;28;20052;-81
2022/09/18 09:30:14;;;;;;;55.97;26.52;;;;;;;12.61;80.19;99976.16;5038182;28;20045;-83
2022/09/18 10:05:57;;;;;;;7.15;4.32;;;;;;;12.96;77.43;99967.47;5155206;27;21047;-82
2022/09/18 10:08:34;;;;;;;9.85;4.65;;;;;;;12.99;77.37;99961.81;5141207;27;20122;-82
2022/09/18 10:24:25;;;;;;;13.25;4.45;;;;;;;13.33;77.11;99945.25;5139210;27;20039;-81
2022/09/18 10:26:59;;;;;;;5.88;3.60;;;;;;;13.37;76.78;99938.63;5103739;27;20057;-81
2022/09/18 10:29:28;;;;;;;15.37;4.23;;;;;;;13.38;76.29;99940.31;5096937;27;20574;-81
2022/09/18 10:35:42;;;;;;;9.50;4.45;;;;;;;13.42;76.00;99936.34;5112843;27;20037;-81
2022/09/18 10:38:31;;;;;;;10.88;3.95;;;;;;;13.43;75.09;99951.38;5098859;27;20080;-81
2022/09/18 10:41:25;;;;;;;6.15;3.00;;;;;;;13.52;75.44;99938.09;5116728;27;20066;-81
2022/09/18 10:44:02;;;;;;;11.32;3.90;;;;;;;13.50;75.43;99948.09;5115542;27;20323;-80
2022/09/18 10:46:35;;;;;;;13.05;4.22;;;;;;;13.50;75.40;99950.75;5104421;27;20035;-80
2022/09/18 10:49:17;;;;;;;13.45;4.10;;;;;;;13.43;74.14;99946.03;5097014;27;20161;-80
2022/09/18 10:51:44;;;;;;;12.07;4.15;;;;;;;13.52;74.85;99946.09;5088819;27;20493;-80
2022/09/18 10:54:17;;;;;;;22.42;8.90;;;;;;;13.48;74.65;99940.22;5072594;27;20039;-80
2022/09/18 10:56:54;;;;;;;126.93;33.90;;;;;;;13.49;74.87;99931.25;5116480;27;20074;-81
2022/09/18 10:59:28;;;;;;;53.33;16.55;;;;;;;13.48;74.54;99934.88;5076506;27;20070;-81
2022/09/18 11:01:56;;;;;;;30.73;10.90;;;;;;;13.55;74.66;99933.28;5112781;27;20043;-81
2022/09/18 11:04:26;;;;;;;55.05;16.23;;;;;;;13.58;74.46;99919.63;5074848;27;20067;-81
2022/09/18 11:06:53;;;;;;;46.65;13.18;;;;;;;13.65;74.38;99912.69;5075586;27;20439;-84
2022/09/18 11:09:37;;;;;;;33.88;10.75;;;;;;;13.64;73.67;99912.88;5075137;27;20055;-81
2022/09/18 11:12:27;;;;;;;38.95;11.85;;;;;;;13.67;72.94;99901.88;5056356;27;20036;-82
2022/09/18 11:15:02;;;;;;;14.07;5.60;;;;;;;13.80;73.43;99910.31;5097250;27;20130;-80
2022/09/18 11:17:32;;;;;;;13.05;4.25;;;;;;;13.88;73.48;99897.03;5073944;27;20134;-81
2022/09/18 11:20:02;;;;;;;11.95;3.17;;;;;;;13.93;73.23;99896.59;5105398;27;20063;-81
2022/09/18 11:22:47;;;;;;;9.68;3.33;;;;;;;13.95;73.18;99899.94;5101842;27;20088;-81
2022/09/18 11:25:25;;;;;;;9.55;3.25;;;;;;;13.95;72.42;99904.44;5086073;27;20042;-82
2022/09/18 11:28:01;;;;;;;13.20;3.70;;;;;;;13.93;72.42;99901.91;5068795;27;20046;-81
2022/09/18 11:30:37;;;;;;;6.85;3.30;;;;;;;13.92;71.95;99892.25;5062908;27;20105;-81
2022/09/18 11:33:25;;;;;;;12.32;3.17;;;;;;;13.84;71.64;99893.03;5067118;27;20039;-81
2022/09/18 11:35:59;;;;;;;18.90;3.63;;;;;;;13.89;71.56;99892.53;5076975;27;20115;-84
2022/09/18 11:38:28;;;;;;;11.13;2.50;;;;;;;13.90;71.67;99889.72;5099161;27;20513;-84
2022/09/18 11:40:57;;;;;;;16.40;2.92;;;;;;;13.86;70.73;99895.53;5082091;27;20054;-84
2022/09/18 11:43:34;;;;;;;11.82;3.85;;;;;;;13.78;70.59;99906.97;5099772;27;20055;-84
2022/09/18 11:46:30;;;;;;;7.00;2.75;;;;;;;13.66;70.50;99895.72;5064941;27;20048;-84
2022/09/18 11:49:04;;;;;;;6.43;2.70;;;;;;;13.74;71.53;99892.28;5080133;27;20040;-85
2022/09/18 11:51:47;;;;;;;8.00;2.72;;;;;;;13.74;70.44;99886.94;5093778;27;20043;-84
2022/09/18 11:54:40;;;;;;;5.80;2.40;;;;;;;13.59;69.98;99888.50;5063207;27;20146;-84
2022/09/18 11:57:17;;;;;;;6.38;2.35;;;;;;;13.64;70.72;99889.69;5099188;27;20043;-83
2022/09/18 11:59:54;;;;;;;6.32;2.55;;;;;;;13.64;70.80;99889.69;5103852;27;20047;-80
2022/09/18 12:02:46;;;;;;;12.57;2.80;;;;;;;13.60;70.79;99882.97;5100210;27;20039;-80
2022/09/18 12:05:19;;;;;;;7.22;3.03;;;;;;;13.66;71.41;99881.50;5067084;28;20051;-80
2022/09/18 12:08:08;;;;;;;6.22;2.38;;;;;;;13.63;71.59;99873.81;5075593;27;20536;-80
2022/09/18 12:11:14;;;;;;;11.30;2.95;;;;;;;13.52;71.38;99869.56;5101907;27;20038;-80
2022/09/18 12:14:12;;;;;;;9.60;3.40;;;;;;;13.50;71.24;99868.88;5072503;27;20130;-80
2022/09/18 12:16:49;;;;;;;6.88;2.90;;;;;;;13.52;71.59;99866.91;5093811;27;20501;-81
2022/09/18 12:19:22;;;;;;;8.77;2.80;;;;;;;13.53;71.88;99863.25;5119043;27;20050;-80
2022/09/18 12:21:58;;;;;;;7.88;3.17;;;;;;;13.51;71.71;99875.06;5114174;27;20502;-82
2022/09/18 12:24:25;;;;;;;13.65;2.88;;;;;;;13.50;72.65;99863.56;5096246;27;20084;-80
2022/09/18 12:27:15;;;;;;;8.55;2.80;;;;;;;13.48;72.88;99862.03;5065591;27;20051;-80
2022/09/18 12:30:00;;;;;;;6.65;2.50;;;;;;;13.51;72.94;99872.38;5081581;27;20066;-79
2022/09/18 12:32:36;;;;;;;7.50;2.67;;;;;;;13.51;73.23;99861.72;5115913;27;20042;-80
2022/09/18 12:35:13;;;;;;;12.75;3.00;;;;;;;13.42;73.44;99860.81;5129998;27;20035;-80
2022/09/18 12:38:09;;;;;;;8.23;2.92;;;;;;;13.41;74.09;99849.31;5129916;27;20118;-80
2022/09/18 12:40:58;;;;;;;8.10;2.75;;;;;;;13.55;74.30;99857.75;5114439;27;20134;-80
2022/09/18 12:43:50;;;;;;;7.65;2.95;;;;;;;13.52;74.28;99860.75;5097025;27;20069;-80
2022/09/18 12:46:55;;;;;;;7.03;3.42;;;;;;;13.46;75.23;99852.38;5119744;27;20486;-80
2022/09/18 12:49:45;;;;;;;13.55;4.65;;;;;;;13.48;75.46;99851.34;5100510;27;20111;-80
2022/09/18 12:52:25;;;;;;;15.75;3.28;;;;;;;13.56;75.98;99846.94;5125420;27;20119;-80
2022/09/18 12:55:33;;;;;;;12.13;3.50;;;;;;;13.46;77.65;99847.03;5089529;27;20387;-80
2022/09/18 12:58:26;;;;;;;4.18;2.63;;;;;;;13.45;77.58;99845.34;5073622;27;20126;-79
2022/09/18 13:00:52;;;;;;;5.75;2.92;;;;;;;13.53;76.81;99857.06;5103271;27;20073;-82
2022/09/18 13:03:25;;;;;;;16.17;4.60;;;;;;;13.52;77.24;99852.75;5123514;27;20059;-82
2022/09/18 13:05:56;;;;;;;6.07;2.67;;;;;;;13.49;77.04;99853.06;5080561;27;20032;-82